Time;durP1;ratioP1;P1;durP2;ratioP2;P2;SDS_P1;SDS_P2;PMS_P1;PMS_P2;Temp;Humidity;BMP_temperature;BMP_pressure;BME280_temperature;BME280_humidity;BME280_pressure;Samples;Min_cycle;Max_cycle;Signal;HPM_P1;HPM_P2
2022/05/07 00:02:38;;;;;;;10.60;6.07;;;;;;;;;;5053885;28;20380;-81
2022/05/07 00:06:04;;;;;;;8.52;6.10;;;;;;;;;;5048237;28;20067;-82
2022/05/07 00:09:19;;;;;;;11.77;6.15;;;;;;;;;;5051593;28;20053;-82
2022/05/07 00:12:55;;;;;;;9.90;5.35;;;;;;;;;;5046741;28;20057;-81
2022/05/07 00:19:35;;;;;;;9.48;5.53;;;;;;;;;;5059722;28;20045;-82
2022/05/07 00:22:21;;;;;;;9.13;5.60;;;;;;;;;;5060608;28;20056;-82
2022/05/07 00:25:10;;;;;;;12.02;5.65;;;;;;;;;;5053246;28;20041;-82
2022/05/07 00:27:55;;;;;;;10.00;6.18;;;;;;;;;;5053275;28;20037;-82
2022/05/07 00:30:44;;;;;;;16.83;7.68;;;;;;;;;;5044836;28;20472;-82
2022/05/07 00:34:28;;;;;;;19.58;7.38;;;;;;;;;;5053276;28;20049;-82
2022/05/07 00:37:33;;;;;;;19.83;6.72;;;;;;;;;;5053611;28;20037;-83
2022/05/07 00:40:42;;;;;;;;;;;;;;;;;;;;;
2022/05/07 00:43:59;;;;;;;14.77;6.85;;;;;;;;;;5060257;28;20049;-82
2022/05/07 00:47:06;;;;;;;10.80;6.60;;;;;;;;;;5059328;28;20044;-83
2022/05/07 00:53:13;;;;;;;9.85;6.18;;;;;;;;;;5044715;28;20501;-82
2022/05/07 00:56:08;;;;;;;9.25;6.03;;;;;;;;;;5063151;28;20052;-83
2022/05/07 00:58:54;;;;;;;10.30;6.15;;;;;;;;;;5048508;28;20049;-82
2022/05/07 01:01:41;;;;;;;8.95;5.88;;;;;;;;;;5048311;28;20060;-82
2022/05/07 01:04:28;;;;;;;8.05;5.43;;;;;;;;;;5048311;28;20045;-82
2022/05/07 01:07:19;;;;;;;8.05;6.30;;;;;;;;;;5046067;28;20049;-82
2022/05/07 01:10:05;;;;;;;11.20;5.88;;;;;;;;;;5056687;28;20057;-82
2022/05/07 01:12:54;;;;;;;9.38;5.50;;;;;;;;;;5042222;28;20407;-82
2022/05/07 01:15:48;;;;;;;10.77;5.40;;;;;;;;;;5048548;28;20044;-82
2022/05/07 01:18:37;;;;;;;7.93;5.05;;;;;;;;;;5062602;28;20053;-82
2022/05/07 01:21:23;;;;;;;12.07;5.22;;;;;;;;;;5048334;28;20041;-81
2022/05/07 01:24:11;;;;;;;7.50;5.20;;;;;;;;;;5047981;28;20064;-82
2022/05/07 01:26:58;;;;;;;10.52;5.65;;;;;;;;;;5062770;28;20044;-83
2022/05/07 01:29:43;;;;;;;11.80;5.13;;;;;;;;;;5047815;28;20044;-83
2022/05/07 01:32:31;;;;;;;10.52;5.45;;;;;;;;;;5047904;28;20045;-82
2022/05/07 01:35:17;;;;;;;7.80;5.10;;;;;;;;;;5048764;28;20049;-82
2022/05/07 01:38:05;;;;;;;8.50;5.35;;;;;;;;;;5050095;28;20049;-82
2022/05/07 01:40:53;;;;;;;7.32;4.88;;;;;;;;;;5050408;28;20411;-82
2022/05/07 01:43:42;;;;;;;7.78;5.07;;;;;;;;;;5051322;28;20049;-82
2022/05/07 01:49:35;;;;;;;7.75;5.45;;;;;;;;;;5050499;28;20045;-82
2022/05/07 01:52:25;;;;;;;7.22;4.90;;;;;;;;;;5051071;28;20044;-82
2022/05/07 01:55:10;;;;;;;5.60;4.45;;;;;;;;;;5057984;28;20044;-83
2022/05/07 01:57:58;;;;;;;7.20;5.10;;;;;;;;;;5062149;28;20391;-82
2022/05/07 02:00:44;;;;;;;10.50;5.30;;;;;;;;;;5047986;28;20045;-82
2022/05/07 02:03:32;;;;;;;9.13;5.20;;;;;;;;;;5047549;28;20443;-82
2022/05/07 02:06:18;;;;;;;7.47;5.22;;;;;;;;;;5062332;28;20044;-82
2022/05/07 02:09:04;;;;;;;6.53;4.53;;;;;;;;;;5056379;28;20049;-82
2022/05/07 02:11:53;;;;;;;12.55;4.85;;;;;;;;;;5044293;28;20049;-81
2022/05/07 02:14:39;;;;;;;8.90;5.10;;;;;;;;;;5047485;28;20053;-82
2022/05/07 02:17:25;;;;;;;10.38;5.15;;;;;;;;;;5061829;28;20044;-82
2022/05/07 02:20:10;;;;;;;11.05;5.50;;;;;;;;;;5055875;28;20045;-82
2022/05/07 02:22:57;;;;;;;8.40;5.00;;;;;;;;;;5033471;28;20048;-81
2022/05/07 02:25:42;;;;;;;8.00;4.53;;;;;;;;;;5062467;28;20049;-81
2022/05/07 02:28:28;;;;;;;7.43;4.25;;;;;;;;;;5046803;28;20045;-82
2022/05/07 02:31:13;;;;;;;11.68;5.68;;;;;;;;;;5060770;28;20049;-82
2022/05/07 02:33:58;;;;;;;9.82;6.18;;;;;;;;;;5050161;28;20045;-82
2022/05/07 02:36:44;;;;;;;14.55;6.75;;;;;;;;;;5058969;28;20045;-82
2022/05/07 02:39:32;;;;;;;9.98;5.75;;;;;;;;;;5050802;28;20041;-82
2022/05/07 02:42:33;;;;;;;8.32;5.20;;;;;;;;;;5052070;28;20057;-83
2022/05/07 02:45:25;;;;;;;9.38;5.13;;;;;;;;;;5050832;28;20049;-82
2022/05/07 02:48:13;;;;;;;7.90;5.53;;;;;;;;;;5050686;28;20045;-82
2022/05/07 02:50:59;;;;;;;12.43;6.32;;;;;;;;;;5050354;28;20487;-82
2022/05/07 02:53:44;;;;;;;8.93;5.95;;;;;;;;;;5051314;28;20044;-82
2022/05/07 02:56:29;;;;;;;14.52;6.65;;;;;;;;;;5064236;28;20041;-82
2022/05/07 02:59:14;;;;;;;12.38;6.53;;;;;;;;;;5064475;28;20045;-82
2022/05/07 03:02:00;;;;;;;9.73;6.03;;;;;;;;;;5058988;28;20048;-82
2022/05/07 03:04:47;;;;;;;9.50;6.38;;;;;;;;;;5050274;28;20498;-84
2022/05/07 03:07:32;;;;;;;9.27;5.82;;;;;;;;;;5048885;28;20044;-83
2022/05/07 03:10:21;;;;;;;8.02;5.55;;;;;;;;;;5061711;28;20056;-83
2022/05/07 03:13:06;;;;;;;7.72;5.45;;;;;;;;;;5054306;28;20057;-83
2022/05/07 03:15:52;;;;;;;9.07;5.72;;;;;;;;;;5060895;28;20049;-83
2022/05/07 03:18:37;;;;;;;9.23;5.28;;;;;;;;;;5046177;28;20045;-83
2022/05/07 03:21:22;;;;;;;8.48;4.93;;;;;;;;;;5060038;28;20053;-81
2022/05/07 03:24:08;;;;;;;7.88;5.70;;;;;;;;;;5055056;28;20049;-83
2022/05/07 03:26:54;;;;;;;8.40;5.43;;;;;;;;;;5045916;28;20045;-82
2022/05/07 03:29:42;;;;;;;8.00;5.32;;;;;;;;;;5046220;28;20057;-83
2022/05/07 03:32:35;;;;;;;9.73;5.47;;;;;;;;;;5061403;28;20053;-82
2022/05/07 03:35:21;;;;;;;8.10;5.20;;;;;;;;;;5045404;28;20049;-83
2022/05/07 03:38:07;;;;;;;10.77;5.50;;;;;;;;;;5046386;28;20044;-82
2022/05/07 03:41:03;;;;;;;9.40;5.43;;;;;;;;;;5059992;28;20040;-82
2022/05/07 03:43:52;;;;;;;9.85;5.72;;;;;;;;;;5046669;28;20057;-82
2022/05/07 03:46:38;;;;;;;12.50;5.80;;;;;;;;;;5054683;28;20053;-82
2022/05/07 03:49:25;;;;;;;10.93;5.88;;;;;;;;;;5046553;28;20052;-82
2022/05/07 03:55:17;;;;;;;;;;;;;;;;;;5046292;28;20049;-81
2022/05/07 03:58:03;;;;;;;11.55;6.15;;;;;;;;;;5060117;28;19913;-81
2022/05/07 04:00:54;;;;;;;8.80;6.15;;;;;;;;;;5045422;28;20045;-81
2022/05/07 04:03:40;;;;;;;8.95;6.43;;;;;;;;;;5046015;28;20052;-81
2022/05/07 04:06:27;;;;;;;13.32;5.82;;;;;;;;;;5061739;28;20045;-81
2022/05/07 04:09:13;;;;;;;10.20;6.60;;;;;;;;;;5059884;28;20399;-81
2022/05/07 04:11:58;;;;;;;10.15;6.53;;;;;;;;;;5054418;28;20041;-81
2022/05/07 04:14:43;;;;;;;13.05;7.15;;;;;;;;;;5045631;28;20045;-82
2022/05/07 04:17:29;;;;;;;10.70;6.55;;;;;;;;;;5045270;28;20403;-82
2022/05/07 04:20:16;;;;;;;10.82;6.90;;;;;;;;;;5054042;28;20045;-82
2022/05/07 04:23:07;;;;;;;10.18;7.40;;;;;;;;;;5059562;28;20041;-82
2022/05/07 04:25:53;;;;;;;12.25;7.03;;;;;;;;;;5045961;28;20049;-82
2022/05/07 04:28:41;;;;;;;11.65;7.28;;;;;;;;;;5046341;28;20048;-82
2022/05/07 04:31:31;;;;;;;9.25;6.20;;;;;;;;;;5064396;28;20049;-82
2022/05/07 04:34:23;;;;;;;20.48;6.25;;;;;;;;;;5050643;28;20057;-82
2022/05/07 04:37:10;;;;;;;9.20;4.75;;;;;;;;;;5049706;28;20053;-82
2022/05/07 04:39:56;;;;;;;6.30;4.60;;;;;;;;;;5049265;28;20044;-83
2022/05/07 04:42:42;;;;;;;7.75;4.78;;;;;;;;;;5063121;28;20053;-82
2022/05/07 04:45:28;;;;;;;9.25;4.80;;;;;;;;;;5062598;28;20041;-82
2022/05/07 04:48:23;;;;;;;9.20;5.10;;;;;;;;;;5062666;28;20045;-82
2022/05/07 04:51:08;;;;;;;8.52;4.65;;;;;;;;;;5048598;28;20048;-82
2022/05/07 04:53:58;;;;;;;8.18;4.50;;;;;;;;;;5048636;28;20049;-82
2022/05/07 04:56:44;;;;;;;4.90;4.20;;;;;;;;;;5063109;28;20036;-81
2022/05/07 04:59:29;;;;;;;7.40;4.90;;;;;;;;;;5062656;28;20044;-82
2022/05/07 05:02:25;;;;;;;7.07;4.72;;;;;;;;;;5063227;28;20391;-82
2022/05/07 05:05:17;;;;;;;10.88;5.00;;;;;;;;;;5048783;28;20044;-82
2022/05/07 05:08:10;;;;;;;8.55;4.70;;;;;;;;;;5062949;28;20049;-81
2022/05/07 05:10:56;;;;;;;10.15;4.53;;;;;;;;;;5047501;28;20061;-82
2022/05/07 05:13:41;;;;;;;10.82;5.65;;;;;;;;;;5048256;28;20049;-82
2022/05/07 05:16:27;;;;;;;8.73;4.65;;;;;;;;;;5056882;28;20049;-82
2022/05/07 05:19:19;;;;;;;11.63;5.13;;;;;;;;;;5062030;28;20052;-82
2022/05/07 05:22:04;;;;;;;10.20;4.70;;;;;;;;;;5048096;28;20432;-82
2022/05/07 05:24:52;;;;;;;9.80;5.15;;;;;;;;;;5048033;28;20049;-82
2022/05/07 05:27:38;;;;;;;9.35;5.07;;;;;;;;;;5056507;28;20045;-82
2022/05/07 05:30:24;;;;;;;8.65;4.30;;;;;;;;;;5047979;28;20052;-82
2022/05/07 05:33:22;;;;;;;7.55;4.53;;;;;;;;;;5047638;28;20045;-82
2022/05/07 05:36:21;;;;;;;11.40;4.80;;;;;;;;;;5047855;28;20049;-82
2022/05/07 05:39:08;;;;;;;12.13;5.00;;;;;;;;;;5047660;28;20045;-81
2022/05/07 05:41:54;;;;;;;6.28;4.40;;;;;;;;;;5055858;28;20049;-82
2022/05/07 05:44:42;;;;;;;9.23;4.85;;;;;;;;;;5047845;28;20045;-83
2022/05/07 05:47:31;;;;;;;8.27;4.65;;;;;;;;;;5047283;28;20040;-82
2022/05/07 05:50:17;;;;;;;10.73;5.07;;;;;;;;;;5061694;28;20052;-83
2022/05/07 05:53:04;;;;;;;8.45;5.00;;;;;;;;;;5061817;28;20048;-82
2022/05/07 05:55:50;;;;;;;8.35;5.60;;;;;;;;;;5061707;28;20480;-82
2022/05/07 05:58:41;;;;;;;8.32;4.80;;;;;;;;;;5047690;28;20045;-82
2022/05/07 06:01:26;;;;;;;8.75;5.18;;;;;;;;;;5061127;28;20040;-82
2022/05/07 06:04:27;;;;;;;9.20;4.63;;;;;;;;;;5061658;28;20053;-83
2022/05/07 06:07:15;;;;;;;7.18;4.18;;;;;;;;;;5061164;28;20052;-82
2022/05/07 06:10:02;;;;;;;6.75;3.90;;;;;;;;;;5061674;28;20061;-82
2022/05/07 06:12:50;;;;;;;8.57;4.32;;;;;;;;;;5040954;28;20049;-82
2022/05/07 06:15:35;;;;;;;9.45;4.68;;;;;;;;;;5046985;28;20053;-81
2022/05/07 06:18:22;;;;;;;8.57;5.20;;;;;;;;;;5046919;28;20495;-82
2022/05/07 06:21:11;;;;;;;6.32;4.60;;;;;;;;;;5046679;28;20479;-81
2022/05/07 06:27:28;;;;;;;7.63;4.30;;;;;;;;;;5047517;28;20061;-82
2022/05/07 06:30:12;;;;;;;6.65;4.43;;;;;;;;;;5044504;28;20057;-82
2022/05/07 06:33:05;;;;;;;11.55;4.68;;;;;;;;;;5047326;28;20041;-81
2022/05/07 06:35:55;;;;;;;7.93;4.50;;;;;;;;;;5046667;28;20045;-81
2022/05/07 06:38:47;;;;;;;12.52;4.78;;;;;;;;;;5047051;28;20040;-82
2022/05/07 06:41:33;;;;;;;15.27;4.78;;;;;;;;;;5061598;28;20475;-82
2022/05/07 06:44:24;;;;;;;7.70;4.05;;;;;;;;;;5046401;28;20487;-83
2022/05/07 06:47:10;;;;;;;8.98;4.40;;;;;;;;;;5046868;28;20045;-82
2022/05/07 06:49:56;;;;;;;14.13;4.43;;;;;;;;;;5046115;28;20057;-83
2022/05/07 06:52:44;;;;;;;7.18;3.97;;;;;;;;;;5054258;28;20464;-82
2022/05/07 06:55:32;;;;;;;7.30;4.10;;;;;;;;;;5046330;28;20053;-83
2022/05/07 06:58:17;;;;;;;9.10;3.95;;;;;;;;;;5061514;28;20052;-82
2022/05/07 07:01:02;;;;;;;6.05;4.68;;;;;;;;;;5054918;28;20045;-83
2022/05/07 07:03:48;;;;;;;5.30;4.20;;;;;;;;;;5045846;28;20438;-82
2022/05/07 07:06:36;;;;;;;6.03;3.58;;;;;;;;;;5061619;28;20045;-82
2022/05/07 07:09:21;;;;;;;6.38;3.45;;;;;;;;;;5061201;28;20483;-83
2022/05/07 07:12:09;;;;;;;10.13;3.78;;;;;;;;;;5056194;28;20044;-83
2022/05/07 07:14:54;;;;;;;9.95;4.22;;;;;;;;;;5061238;28;20049;-83
2022/05/07 07:17:40;;;;;;;11.55;3.97;;;;;;;;;;5060628;28;20045;-83
2022/05/07 07:20:27;;;;;;;9.52;3.88;;;;;;;;;;5061030;28;20048;-83
2022/05/07 07:23:14;;;;;;;5.03;3.40;;;;;;;;;;5046435;28;20037;-82
2022/05/07 07:26:00;;;;;;;7.03;3.65;;;;;;;;;;5060425;28;20053;-83
2022/05/07 07:28:46;;;;;;;14.25;4.30;;;;;;;;;;5054070;28;20045;-83
2022/05/07 07:31:31;;;;;;;8.23;2.75;;;;;;;;;;5039229;28;20037;-84
2022/05/07 07:34:17;;;;;;;7.28;3.28;;;;;;;;;;5053736;28;20037;-82
2022/05/07 07:37:02;;;;;;;7.05;3.30;;;;;;;;;;5060476;28;20053;-82
2022/05/07 07:39:48;;;;;;;10.88;2.90;;;;;;;;;;5059887;28;20045;-83
2022/05/07 07:42:33;;;;;;;5.80;2.80;;;;;;;;;;5060628;28;20061;-84
2022/05/07 07:48:22;;;;;;;8.60;2.97;;;;;;;;;;5053784;28;20476;-82
2022/05/07 07:51:08;;;;;;;6.68;2.95;;;;;;;;;;5053745;28;20048;-82
2022/05/07 07:53:56;;;;;;;9.43;3.78;;;;;;;;;;5053208;28;20041;-81
2022/05/07 07:56:44;;;;;;;6.03;3.28;;;;;;;;;;5053754;28;20040;-81
2022/05/07 07:59:29;;;;;;;6.88;2.90;;;;;;;;;;5060169;28;20037;-82
2022/05/07 08:02:14;;;;;;;8.32;3.33;;;;;;;;;;5060497;28;20045;-83
2022/05/07 08:05:00;;;;;;;9.32;3.42;;;;;;;;;;5064542;28;20053;-84
2022/05/07 08:14:14;;;;;;;11.80;3.30;;;;;;;;;;5015967;28;20493;-84
2022/05/07 08:17:00;;;;;;;5.70;2.60;;;;;;;;;;5057157;28;20045;-85
2022/05/07 08:19:46;;;;;;;7.35;3.08;;;;;;;;;;5064337;28;20049;-85
2022/05/07 08:22:32;;;;;;;5.07;2.58;;;;;;;;;;5063791;28;20483;-83
2022/05/07 08:25:17;;;;;;;3.47;2.58;;;;;;;;;;5050000;28;20049;-85
2022/05/07 08:28:04;;;;;;;4.95;2.85;;;;;;;;;;5064160;28;20045;-85
2022/05/07 08:30:49;;;;;;;7.45;3.60;;;;;;;;;;5063879;28;20045;-86
2022/05/07 08:33:36;;;;;;;9.25;3.38;;;;;;;;;;5064421;28;20053;-84
2022/05/07 08:36:21;;;;;;;12.57;3.53;;;;;;;;;;5056852;28;20042;-84
2022/05/07 08:39:07;;;;;;;9.32;3.38;;;;;;;;;;5057064;28;20041;-84
2022/05/07 08:41:52;;;;;;;9.25;3.90;;;;;;;;;;5048388;28;20395;-84
2022/05/07 08:44:38;;;;;;;6.70;3.60;;;;;;;;;;5063624;28;20411;-85
2022/05/07 08:47:24;;;;;;;16.77;4.28;;;;;;;;;;5063802;28;20053;-85
2022/05/07 08:50:11;;;;;;;8.00;3.20;;;;;;;;;;5061547;28;20045;-85
2022/05/07 08:52:57;;;;;;;5.50;3.10;;;;;;;;;;5076128;28;20406;-86
2022/05/07 08:55:42;;;;;;;5.40;2.97;;;;;;;;;;5076430;28;20040;-87
2022/05/07 08:58:28;;;;;;;6.70;4.28;;;;;;;;;;5077173;28;20044;-86
2022/05/07 09:01:25;;;;;;;8.02;3.65;;;;;;;;;;5076438;28;20048;-86
2022/05/07 09:04:19;;;;;;;5.43;3.10;;;;;;;;;;5076297;28;20036;-87
2022/05/07 09:07:14;;;;;;;8.18;3.78;;;;;;;;;;5064579;28;20045;-84
2022/05/07 09:10:42;;;;;;;5.97;3.80;;;;;;;;;;5083236;28;20036;-88
2022/05/07 09:13:41;;;;;;;6.05;3.13;;;;;;;;;;5059241;28;20044;-86
2022/05/07 09:16:41;;;;;;;6.40;4.28;;;;;;;;;;5050064;28;20060;-86
2022/05/07 09:19:30;;;;;;;8.70;4.45;;;;;;;;;;5073646;28;20036;-85
2022/05/07 09:22:19;;;;;;;8.93;3.75;;;;;;;;;;5079059;28;20483;-84
2022/05/07 09:25:05;;;;;;;8.38;3.70;;;;;;;;;;5073613;28;20037;-84
2022/05/07 09:27:54;;;;;;;7.50;3.90;;;;;;;;;;5076005;28;20044;-83
2022/05/07 09:30:42;;;;;;;5.28;3.83;;;;;;;;;;5076049;28;20049;-84
2022/05/07 09:33:34;;;;;;;8.65;4.05;;;;;;;;;;5082383;28;20049;-84
2022/05/07 09:36:19;;;;;;;11.57;4.18;;;;;;;;;;5083047;28;20471;-84
2022/05/07 09:39:04;;;;;;;5.45;3.22;;;;;;;;;;5082776;28;20048;-86
2022/05/07 09:41:54;;;;;;;4.57;3.20;;;;;;;;;;5083072;28;20044;-83
2022/05/07 09:44:40;;;;;;;7.97;2.95;;;;;;;;;;5082817;28;20045;-83
2022/05/07 09:47:27;;;;;;;3.97;2.80;;;;;;;;;;5082813;28;20036;-84
2022/05/07 09:59:33;;;;;;;7.40;3.50;;;;;;;;;;5081585;28;20055;-84
2022/05/07 10:02:34;;;;;;;6.05;3.45;;;;;;;;;;5072717;28;20032;-84
2022/05/07 10:05:47;;;;;;;9.30;3.65;;;;;;;;;;5072553;28;20040;-84
2022/05/07 10:08:46;;;;;;;4.35;2.50;;;;;;;;;;5081035;28;20390;-84
2022/05/07 10:11:32;;;;;;;13.32;3.42;;;;;;;;;;5063513;28;20056;-84
2022/05/07 10:14:26;;;;;;;12.52;3.45;;;;;;;;;;5071896;28;20036;-85
2022/05/07 10:17:13;;;;;;;4.18;3.28;;;;;;;;;;5073905;28;20048;-84
2022/05/07 10:20:09;;;;;;;6.13;3.10;;;;;;;;;;5078626;28;20049;-84
2022/05/07 10:22:56;;;;;;;4.75;3.03;;;;;;;;;;5080876;28;20399;-82
2022/05/07 10:25:45;;;;;;;4.53;2.85;;;;;;;;;;5081253;28;20418;-84
2022/05/07 10:28:38;;;;;;;4.38;2.10;;;;;;;;;;5065547;28;20044;-83
2022/05/07 10:31:27;;;;;;;5.28;3.30;;;;;;;;;;5081831;28;20406;-83
2022/05/07 10:34:28;;;;;;;5.40;2.53;;;;;;;;;;5074401;28;20045;-85
2022/05/07 10:37:14;;;;;;;4.40;2.70;;;;;;;;;;5081203;28;20048;-84
2022/05/07 10:40:12;;;;;;;6.40;3.47;;;;;;;;;;5061952;28;20498;-82
2022/05/07 10:42:58;;;;;;;11.68;3.50;;;;;;;;;;5078336;28;20056;-84
2022/05/07 10:45:43;;;;;;;6.97;3.10;;;;;;;;;;5079321;28;20048;-84
2022/05/07 10:48:40;;;;;;;4.95;3.53;;;;;;;;;;5079366;28;20036;-84
2022/05/07 10:51:33;;;;;;;4.03;2.85;;;;;;;;;;5077238;28;20044;-82
2022/05/07 10:54:26;;;;;;;11.30;3.40;;;;;;;;;;5078265;28;20044;-81
2022/05/07 10:57:12;;;;;;;5.53;3.38;;;;;;;;;;5080369;28;20052;-85
2022/05/07 10:59:58;;;;;;;5.22;2.83;;;;;;;;;;5072905;28;20036;-84
2022/05/07 11:02:45;;;;;;;12.73;3.10;;;;;;;;;;5079321;28;20041;-82
2022/05/07 11:05:34;;;;;;;6.80;3.17;;;;;;;;;;5080981;28;20044;-83
2022/05/07 11:08:19;;;;;;;5.70;3.60;;;;;;;;;;5080501;28;20040;-83
2022/05/07 11:11:15;;;;;;;8.23;4.63;;;;;;;;;;5073874;28;20053;-83
2022/05/07 11:14:01;;;;;;;9.88;3.97;;;;;;;;;;5065683;28;20044;-86
2022/05/07 11:16:46;;;;;;;6.38;4.07;;;;;;;;;;5080616;28;20044;-85
2022/05/07 11:19:33;;;;;;;6.35;3.40;;;;;;;;;;5080792;28;20467;-85
2022/05/07 11:22:35;;;;;;;6.93;4.10;;;;;;;;;;5080249;28;20052;-87
2022/05/07 11:25:31;;;;;;;5.25;2.97;;;;;;;;;;5067795;28;20034;-83
2022/05/07 11:28:19;;;;;;;5.75;3.28;;;;;;;;;;5045314;28;20041;-83
2022/05/07 11:31:04;;;;;;;7.22;3.25;;;;;;;;;;5061411;28;20218;-80
2022/05/07 11:34:06;;;;;;;8.50;3.28;;;;;;;;;;5080437;28;20044;-82
2022/05/07 11:36:54;;;;;;;5.55;2.90;;;;;;;;;;5068911;28;20045;-83
2022/05/07 11:40:32;;;;;;;7.07;3.20;;;;;;;;;;5054823;28;20571;-86
2022/05/07 11:46:28;;;;;;;8.95;3.38;;;;;;;;;;5062636;28;20057;-85
2022/05/07 11:49:41;;;;;;;4.80;3.20;;;;;;;;;;5059204;28;20037;-84
2022/05/07 11:52:36;;;;;;;6.38;3.85;;;;;;;;;;5063377;28;20040;-83
2022/05/07 11:55:30;;;;;;;10.65;5.38;;;;;;;;;;5041717;28;20052;-85
2022/05/07 11:58:51;;;;;;;7.20;4.00;;;;;;;;;;5061076;28;20041;-83
2022/05/07 12:02:25;;;;;;;5.43;3.83;;;;;;;;;;5061740;28;20037;-82
2022/05/07 12:05:21;;;;;;;8.60;4.07;;;;;;;;;;4987516;28;20484;-84
2022/05/07 12:08:13;;;;;;;7.97;3.85;;;;;;;;;;5056148;28;20053;-81
2022/05/07 12:11:15;;;;;;;4.75;3.97;;;;;;;;;;5053917;28;20395;-85
2022/05/07 12:14:08;;;;;;;10.55;4.18;;;;;;;;;;5080079;28;20041;-82
2022/05/07 12:20:52;;;;;;;7.68;3.13;;;;;;;;;;5070661;28;20036;-82
2022/05/07 12:30:34;;;;;;;10.88;3.67;;;;;;;;;;5077709;28;20562;-85
2022/05/07 12:33:25;;;;;;;6.65;3.85;;;;;;;;;;5072075;28;20398;-84
2022/05/07 12:36:23;;;;;;;5.13;3.17;;;;;;;;;;5052722;28;20045;-84
2022/05/07 12:39:08;;;;;;;6.22;3.50;;;;;;;;;;5077136;28;20040;-84
2022/05/07 12:42:04;;;;;;;6.40;3.63;;;;;;;;;;5047814;28;20048;-84
2022/05/07 12:44:49;;;;;;;7.43;2.80;;;;;;;;;;5076545;28;20036;-84
2022/05/07 12:47:34;;;;;;;5.30;3.33;;;;;;;;;;5059733;28;20045;-84
2022/05/07 12:50:20;;;;;;;7.00;3.60;;;;;;;;;;5060357;28;20049;-85
2022/05/07 12:53:09;;;;;;;5.88;3.85;;;;;;;;;;5064020;28;20053;-85
2022/05/07 12:55:55;;;;;;;6.20;3.35;;;;;;;;;;5063763;28;20049;-83
2022/05/07 12:58:47;;;;;;;5.55;3.25;;;;;;;;;;5056449;28;20396;-82
2022/05/07 13:01:32;;;;;;;7.07;2.90;;;;;;;;;;5048137;28;20041;-83
2022/05/07 13:04:24;;;;;;;4.72;3.20;;;;;;;;;;5062694;28;20045;-83
2022/05/07 13:07:12;;;;;;;6.80;3.30;;;;;;;;;;5063295;28;20045;-84
2022/05/07 13:09:58;;;;;;;6.07;3.10;;;;;;;;;;5063119;28;20041;-83
2022/05/07 13:13:07;;;;;;;10.43;4.20;;;;;;;;;;5055794;28;20045;-84
2022/05/07 13:15:55;;;;;;;9.05;3.90;;;;;;;;;;5063483;28;20037;-83
2022/05/07 13:18:51;;;;;;;9.88;3.42;;;;;;;;;;5041151;28;20041;-83
2022/05/07 13:21:41;;;;;;;7.88;3.72;;;;;;;;;;5068383;28;20041;-84
2022/05/07 13:24:26;;;;;;;4.63;2.47;;;;;;;;;;5062595;28;20033;-84
2022/05/07 13:27:15;;;;;;;5.53;3.63;;;;;;;;;;5069575;28;20048;-84
2022/05/07 13:30:43;;;;;;;6.35;3.80;;;;;;;;;;5062324;28;20049;-84
2022/05/07 13:33:36;;;;;;;5.82;3.03;;;;;;;;;;5069092;28;20053;-84
2022/05/07 13:36:24;;;;;;;8.30;3.53;;;;;;;;;;5069423;28;20041;-85
2022/05/07 13:39:09;;;;;;;7.15;3.70;;;;;;;;;;5052609;28;20037;-85
2022/05/07 13:41:54;;;;;;;6.15;3.25;;;;;;;;;;5072146;28;20036;-84
2022/05/07 13:44:42;;;;;;;8.02;3.58;;;;;;;;;;5073593;28;20395;-85
2022/05/07 13:48:09;;;;;;;15.45;3.58;;;;;;;;;;5078785;28;20036;-85
2022/05/07 13:51:10;;;;;;;5.22;3.60;;;;;;;;;;5073068;28;20247;-83
2022/05/07 13:53:59;;;;;;;7.88;3.65;;;;;;;;;;5044907;28;20045;-84
2022/05/07 13:56:45;;;;;;;5.72;2.65;;;;;;;;;;5074265;28;20498;-83
2022/05/07 13:59:32;;;;;;;4.82;3.38;;;;;;;;;;5081394;28;20036;-83
2022/05/07 14:02:24;;;;;;;7.70;3.05;;;;;;;;;;5072175;28;20402;-85
2022/05/07 14:05:15;;;;;;;8.07;3.17;;;;;;;;;;5063597;28;20479;-83
2022/05/07 14:08:03;;;;;;;4.18;2.97;;;;;;;;;;5073905;28;20036;-83
2022/05/07 14:10:49;;;;;;;6.07;2.72;;;;;;;;;;5072520;28;20036;-85
2022/05/07 14:13:38;;;;;;;7.05;3.08;;;;;;;;;;5050459;28;20357;-84
2022/05/07 14:16:29;;;;;;;5.50;3.13;;;;;;;;;;5049351;28;20037;-85
2022/05/07 14:19:24;;;;;;;7.57;2.97;;;;;;;;;;5052074;28;20052;-85
2022/05/07 14:22:09;;;;;;;5.88;2.50;;;;;;;;;;5052610;28;20422;-84
2022/05/07 14:25:03;;;;;;;4.35;2.38;;;;;;;;;;5054290;28;20048;-85
2022/05/07 14:28:02;;;;;;;9.32;3.10;;;;;;;;;;5054967;28;20041;-84
2022/05/07 14:30:47;;;;;;;3.75;2.00;;;;;;;;;;5054935;28;20041;-84
2022/05/07 14:33:35;;;;;;;8.25;2.45;;;;;;;;;;5055278;28;20040;-85
2022/05/07 14:36:21;;;;;;;3.28;1.90;;;;;;;;;;5055250;28;20041;-85
2022/05/07 14:39:06;;;;;;;9.27;2.60;;;;;;;;;;5061805;28;20053;-85
2022/05/07 14:41:52;;;;;;;3.38;2.30;;;;;;;;;;5060274;28;20045;-85
2022/05/07 14:44:42;;;;;;;5.95;2.20;;;;;;;;;;5060975;28;20036;-85
2022/05/07 14:47:57;;;;;;;7.10;2.60;;;;;;;;;;5052112;28;20395;-87
2022/05/07 14:50:53;;;;;;;6.15;2.90;;;;;;;;;;5054405;28;20041;-86
2022/05/07 14:53:42;;;;;;;6.22;3.70;;;;;;;;;;5054524;28;20399;-83
2022/05/07 14:56:34;;;;;;;4.72;2.72;;;;;;;;;;5054311;28;20476;-82
2022/05/07 14:59:41;;;;;;;9.40;2.80;;;;;;;;;;5054524;28;20037;-83
2022/05/07 15:03:18;;;;;;;6.28;2.42;;;;;;;;;;5061680;28;20048;-83
2022/05/07 15:06:39;;;;;;;8.35;2.80;;;;;;;;;;5054774;28;20037;-84
2022/05/07 15:12:31;;;;;;;4.72;2.35;;;;;;;;;;5069884;28;20045;-85
2022/05/07 15:15:19;;;;;;;6.78;2.75;;;;;;;;;;5074875;28;20052;-87
2022/05/07 15:18:21;;;;;;;5.18;2.35;;;;;;;;;;5059866;28;20064;-86
2022/05/07 15:21:06;;;;;;;7.15;2.78;;;;;;;;;;5066301;28;20088;-83
2022/05/07 15:24:11;;;;;;;6.25;2.50;;;;;;;;;;5051970;28;20045;-87
2022/05/07 15:27:12;;;;;;;4.93;2.58;;;;;;;;;;5059774;28;20048;-85
2022/05/07 15:30:14;;;;;;;5.07;2.55;;;;;;;;;;5074572;28;20036;-85
2022/05/07 15:37:03;;;;;;;6.53;2.35;;;;;;;;;;5062396;28;20048;-85
2022/05/07 15:40:23;;;;;;;8.20;2.13;;;;;;;;;;5073908;28;20399;-84
2022/05/07 15:43:18;;;;;;;4.13;2.13;;;;;;;;;;5065660;28;20049;-85
2022/05/07 15:46:08;;;;;;;6.50;2.60;;;;;;;;;;5074222;28;20040;-86
2022/05/07 15:49:26;;;;;;;5.10;1.90;;;;;;;;;;5073867;28;20052;-82
2022/05/07 15:52:14;;;;;;;;;;;;;;;;;;5062425;28;20056;-82
2022/05/07 15:55:15;;;;;;;;;;;;;;;;;;;;;
2022/05/07 15:58:23;;;;;;;4.10;2.47;;;;;;;;;;5066031;28;20044;-84
2022/05/07 16:01:09;;;;;;;5.13;2.45;;;;;;;;;;5066421;28;20479;-85
2022/05/07 16:04:09;;;;;;;4.80;2.30;;;;;;;;;;5074141;28;20506;-84
2022/05/07 16:07:01;;;;;;;4.28;2.35;;;;;;;;;;5074547;28;20037;-84
2022/05/07 16:09:49;;;;;;;;;;;;;;;;;;5081275;28;20418;-85
2022/05/07 16:12:34;;;;;;;;;;;;;;;;;;5060078;28;20252;-83
2022/05/07 16:15:43;;;;;;;4.35;1.90;;;;;;;;;;5067257;28;19917;-84
2022/05/07 16:18:29;;;;;;;10.18;5.18;;;;;;;;;;5065338;28;20048;-85
2022/05/07 16:21:51;;;;;;;2.70;1.90;;;;;;;;;;5073924;28;20036;-85
2022/05/07 16:25:02;;;;;;;7.05;2.30;;;;;;;;;;5067172;28;20049;-85
2022/05/07 16:27:47;;;;;;;6.30;2.40;;;;;;;;;;5065913;28;20475;-85
2022/05/07 16:30:44;;;;;;;6.22;2.50;;;;;;;;;;5077356;28;20486;-87
2022/05/07 16:33:55;;;;;;;;;;;;;;;;;;;;;
2022/05/07 16:37:25;;;;;;;4.43;2.38;;;;;;;;;;5077963;28;20036;-83
2022/05/07 16:40:36;;;;;;;6.43;2.35;;;;;;;;;;5077469;28;20036;-83
2022/05/07 16:43:44;;;;;;;7.13;3.10;;;;;;;;;;5076964;28;20479;-84
2022/05/07 16:46:44;;;;;;;6.13;2.95;;;;;;;;;;5068306;28;20049;-84
2022/05/07 16:49:34;;;;;;;7.40;2.88;;;;;;;;;;5080778;28;20040;-84
2022/05/07 16:52:28;;;;;;;3.15;2.45;;;;;;;;;;5076552;28;20041;-85
2022/05/07 16:56:00;;;;;;;6.72;2.75;;;;;;;;;;5073354;28;20032;-85
2022/05/07 16:58:59;;;;;;;5.45;2.40;;;;;;;;;;5073412;28;20052;-86
2022/05/07 17:01:50;;;;;;;6.72;3.28;;;;;;;;;;5076393;28;20045;-83
2022/05/07 17:04:35;;;;;;;6.50;3.55;;;;;;;;;;5084256;28;20053;-84
2022/05/07 17:07:49;;;;;;;;;;;;;;;;;;;;;
2022/05/07 17:10:46;;;;;;;8.20;3.15;;;;;;;;;;5076583;28;20048;-84
2022/05/07 17:13:34;;;;;;;6.60;2.90;;;;;;;;;;5076306;28;20036;-84
2022/05/07 17:16:27;;;;;;;10.20;2.95;;;;;;;;;;5083356;28;20418;-84
2022/05/07 17:19:24;;;;;;;6.83;2.63;;;;;;;;;;5077091;28;20467;-85
2022/05/07 17:22:15;;;;;;;6.18;2.70;;;;;;;;;;5075760;28;20040;-83
2022/05/07 17:25:01;;;;;;;8.60;3.00;;;;;;;;;;5066082;28;20048;-85
2022/05/07 17:27:46;;;;;;;10.00;2.90;;;;;;;;;;5081403;28;20411;-85
2022/05/07 17:30:32;;;;;;;4.65;3.10;;;;;;;;;;5072747;28;20049;-84
2022/05/07 17:33:17;;;;;;;8.95;4.65;;;;;;;;;;5073036;28;20056;-84
2022/05/07 17:36:04;;;;;;;19.95;11.02;;;;;;;;;;5066119;28;20399;-83
2022/05/07 17:38:50;;;;;;;12.60;5.50;;;;;;;;;;5078518;28;20044;-83
2022/05/07 17:41:41;;;;;;;8.02;3.28;;;;;;;;;;5073223;28;20483;-84
2022/05/07 17:44:40;;;;;;;9.65;3.90;;;;;;;;;;5072557;28;20041;-83
2022/05/07 17:47:25;;;;;;;14.15;4.55;;;;;;;;;;5082171;28;20040;-83
2022/05/07 17:50:14;;;;;;;11.40;4.35;;;;;;;;;;5047365;28;20041;-83
2022/05/07 17:52:58;;;;;;;11.77;4.75;;;;;;;;;;5062341;28;20475;-83
2022/05/07 17:55:43;;;;;;;12.98;4.68;;;;;;;;;;5078248;28;20040;-83
2022/05/07 17:58:29;;;;;;;16.65;5.07;;;;;;;;;;5072352;28;20510;-85
2022/05/07 18:01:15;;;;;;;10.95;5.05;;;;;;;;;;5070050;28;20048;-84
2022/05/07 18:04:01;;;;;;;12.43;5.03;;;;;;;;;;5081865;28;20040;-83
2022/05/07 18:06:47;;;;;;;16.63;5.60;;;;;;;;;;5081457;28;20056;-85
2022/05/07 18:09:36;;;;;;;12.65;4.20;;;;;;;;;;5082338;28;20402;-83